Time;durP1;ratioP1;P1;durP2;ratioP2;P2;SDS_P1;SDS_P2;PMS_P1;PMS_P2;Temp;Humidity;BMP_temperature;BMP_pressure;BME280_temperature;BME280_humidity;BME280_pressure;Samples;Min_cycle;Max_cycle;Signal;HPM_P1;HPM_P2
2023/10/15 00:00:15;;;;;;;141.75;11.05;;;21.40;43.70;;;;;;6164314;23;20004;-72
2023/10/15 00:02:43;;;;;;;7.28;1.42;;;21.40;44.20;;;;;;6165537;23;20041;-71
2023/10/15 00:05:20;;;;;;;5.60;0.90;;;21.50;44.30;;;;;;6187364;23;20005;-72
2023/10/15 00:07:48;;;;;;;4.05;1.08;;;21.50;44.30;;;;;;6214108;23;20007;-71
2023/10/15 00:10:17;;;;;;;1.83;0.98;;;21.60;44.60;;;;;;6188641;23;20020;-72
2023/10/15 00:12:46;;;;;;;3.22;0.95;;;21.60;43.00;;;;;;6162579;23;20455;-73
2023/10/15 00:15:15;;;;;;;0.90;0.70;;;21.60;44.40;;;;;;6162516;23;20328;-75
2023/10/15 00:17:43;;;;;;;2.10;1.33;;;21.60;42.50;;;;;;6188450;23;20143;-79
2023/10/15 00:20:14;;;;;;;2.83;0.82;;;21.60;42.60;;;;;;6214829;23;20121;-71
2023/10/15 05:38:16;;;;;;;3.75;1.50;;;22.00;48.30;;;;;;6204837;23;20078;-71
2023/10/15 05:40:47;;;;;;;8.93;1.73;;;22.00;50.40;;;;;;6129036;23;20404;-69
2023/10/15 05:43:14;;;;;;;2.17;1.30;;;22.00;49.70;;;;;;6133926;23;20084;-70
2023/10/15 05:45:42;;;;;;;3.65;1.70;;;21.90;49.50;;;;;;6156309;23;20005;-69
2023/10/15 05:48:09;;;;;;;3.35;1.50;;;21.90;48.80;;;;;;6156997;23;20012;-69
2023/10/15 05:50:37;;;;;;;4.25;1.80;;;21.80;49.20;;;;;;6156398;23;20020;-70
2023/10/15 05:53:06;;;;;;;3.60;1.60;;;21.80;48.80;;;;;;6155992;23;20056;-69
2023/10/15 05:55:33;;;;;;;3.97;1.52;;;21.80;48.00;;;;;;6107228;23;20843;-69
2023/10/15 05:58:00;;;;;;;6.35;1.50;;;21.70;46.60;;;;;;6182313;23;20005;-69
2023/10/15 06:00:28;;;;;;;4.10;1.70;;;21.70;47.00;;;;;;6181890;23;20395;-72
2023/10/15 06:02:55;;;;;;;3.05;1.50;;;21.70;46.60;;;;;;6155641;23;20076;-70
2023/10/15 06:05:23;;;;;;;5.50;1.67;;;21.70;47.20;;;;;;6127983;23;20009;-69
2023/10/15 06:07:50;;;;;;;5.43;1.70;;;21.80;48.20;;;;;;6179026;23;20403;-70
2023/10/15 06:10:18;;;;;;;6.88;2.00;;;21.80;49.50;;;;;;6129998;23;20040;-70
2023/10/15 06:12:45;;;;;;;3.15;1.15;;;21.80;51.60;;;;;;6182066;23;20013;-72
2023/10/15 06:15:14;;;;;;;4.28;1.50;;;21.80;52.20;;;;;;6181646;23;20036;-72
2023/10/15 06:17:42;;;;;;;4.65;1.42;;;21.80;53.80;;;;;;6178003;23;20005;-71
2023/10/15 06:20:13;;;;;;;3.97;1.40;;;21.80;54.80;;;;;;6181699;23;20005;-69
2023/10/15 06:22:41;;;;;;;3.25;1.30;;;21.80;55.40;;;;;;6131961;23;20341;-70
2023/10/15 06:25:09;;;;;;;7.57;1.85;;;21.80;54.70;;;;;;6181403;23;20016;-70
2023/10/15 06:27:37;;;;;;;3.80;1.48;;;21.80;53.60;;;;;;6181198;23;20052;-70
2023/10/15 06:30:17;;;;;;;4.00;1.75;;;21.80;53.80;;;;;;6155942;23;20103;-71
2023/10/15 06:32:47;;;;;;;3.00;1.50;;;21.70;53.10;;;;;;6157321;23;20005;-71
2023/10/15 06:35:18;;;;;;;2.25;1.45;;;21.70;53.50;;;;;;6180802;23;20005;-71
2023/10/15 06:37:49;;;;;;;3.70;1.50;;;21.70;52.50;;;;;;6156232;23;20009;-71
2023/10/15 06:40:17;;;;;;;4.50;1.40;;;21.60;53.30;;;;;;6181453;23;20073;-70
2023/10/15 06:42:44;;;;;;;3.28;1.70;;;21.60;54.00;;;;;;6180684;23;20313;-71
2023/10/15 06:45:11;;;;;;;4.38;1.60;;;21.50;53.90;;;;;;6181195;23;20009;-71
2023/10/15 06:47:39;;;;;;;4.80;1.45;;;21.50;55.10;;;;;;6155234;23;20499;-70
2023/10/15 06:50:07;;;;;;;3.35;1.58;;;21.50;55.20;;;;;;6181154;23;20038;-71
2023/10/15 06:52:39;;;;;;;4.28;1.67;;;21.50;55.20;;;;;;6181324;23;20332;-71
2023/10/15 06:55:07;;;;;;;4.28;1.60;;;21.50;55.50;;;;;;6180112;23;20009;-71
2023/10/15 06:57:38;;;;;;;9.00;2.50;;;21.40;55.80;;;;;;6154740;23;20387;-72
2023/10/15 07:00:10;;;;;;;3.28;1.60;;;21.30;56.30;;;;;;6155615;23;20314;-71
2023/10/15 07:02:38;;;;;;;6.50;1.60;;;21.40;56.70;;;;;;6155283;23;20008;-71
2023/10/15 07:05:05;;;;;;;5.35;1.60;;;21.30;56.70;;;;;;6129493;23;20013;-70
2023/10/15 07:07:35;;;;;;;3.72;1.55;;;21.30;56.60;;;;;;6155067;23;20469;-70
2023/10/15 07:10:06;;;;;;;4.43;1.60;;;21.30;56.90;;;;;;6181251;23;20092;-70
2023/10/15 07:12:34;;;;;;;3.20;1.60;;;21.30;56.80;;;;;;6155585;23;20009;-70
2023/10/15 07:15:01;;;;;;;5.60;1.70;;;21.30;56.70;;;;;;6155767;23;20005;-71
2023/10/15 07:17:29;;;;;;;3.03;1.38;;;21.30;56.80;;;;;;6152685;23;20005;-71
2023/10/15 07:19:56;;;;;;;3.72;1.50;;;21.30;57.20;;;;;;6180483;23;20005;-71
2023/10/15 07:22:23;;;;;;;6.20;1.60;;;21.30;58.30;;;;;;6180861;23;20448;-71
2023/10/15 07:24:51;;;;;;;4.78;1.73;;;21.20;59.50;;;;;;6153934;23;20008;-70
2023/10/15 07:27:19;;;;;;;3.10;1.67;;;21.20;59.10;;;;;;6181123;23;20448;-71
2023/10/15 07:29:47;;;;;;;3.35;1.38;;;21.20;59.30;;;;;;6180766;23;20013;-71
2023/10/15 07:32:15;;;;;;;6.10;1.95;;;21.20;60.10;;;;;;6155362;23;20012;-71
2023/10/15 07:34:42;;;;;;;15.07;1.80;;;21.20;60.20;;;;;;6154857;23;20009;-71
2023/10/15 07:37:09;;;;;;;4.88;1.80;;;21.10;59.20;;;;;;6155897;23;19997;-72
2023/10/15 07:39:37;;;;;;;5.18;1.58;;;21.10;60.20;;;;;;6197798;23;20490;-72
2023/10/15 07:42:06;;;;;;;6.38;1.70;;;21.10;61.10;;;;;;6210327;23;20024;-72
2023/10/15 07:44:34;;;;;;;3.67;1.55;;;21.10;61.10;;;;;;6185576;23;20000;-72
2023/10/15 07:47:02;;;;;;;5.45;1.60;;;21.00;60.90;;;;;;6183502;23;20005;-72
2023/10/15 07:49:31;;;;;;;6.10;1.60;;;21.00;61.70;;;;;;6211602;23;20020;-72
2023/10/15 07:51:59;;;;;;;6.80;1.75;;;20.90;62.50;;;;;;6184565;23;20076;-73
2023/10/15 07:54:26;;;;;;;22.63;10.88;;;21.00;62.30;;;;;;6210931;23;20440;-73
2023/10/15 07:56:54;;;;;;;10.57;3.65;;;20.90;62.40;;;;;;6183840;23;20005;-73
2023/10/15 07:59:21;;;;;;;4.82;1.88;;;20.90;62.20;;;;;;6211457;23;20017;-72
2023/10/15 08:01:50;;;;;;;3.05;1.50;;;20.80;62.80;;;;;;6210223;23;20000;-72
2023/10/15 08:04:17;;;;;;;4.40;1.77;;;20.80;63.10;;;;;;6209693;23;20775;-73
2023/10/15 08:06:46;;;;;;;4.32;1.65;;;20.70;61.40;;;;;;6184692;23;20444;-71
2023/10/15 08:09:13;;;;;;;7.10;1.65;;;20.80;62.00;;;;;;6211502;23;20008;-71
2023/10/15 08:11:41;;;;;;;8.88;1.63;;;20.70;63.30;;;;;;6211814;23;20051;-71
2023/10/15 08:14:09;;;;;;;8.00;1.77;;;20.70;63.20;;;;;;6185106;23;20408;-73
2023/10/15 08:16:37;;;;;;;4.97;1.60;;;20.70;63.80;;;;;;6182873;23;20008;-75
2023/10/15 08:19:05;;;;;;;4.25;1.55;;;20.60;64.10;;;;;;6185502;23;20064;-76
2023/10/15 08:21:32;;;;;;;4.72;1.60;;;20.60;64.70;;;;;;6211188;23;20001;-77
2023/10/15 08:24:03;;;;;;;7.47;1.52;;;20.60;65.10;;;;;;6209914;23;20083;-77
2023/10/15 08:26:31;;;;;;;5.93;1.98;;;20.50;65.70;;;;;;6185577;23;20012;-77
2023/10/15 08:28:58;;;;;;;5.72;1.63;;;20.40;66.20;;;;;;6160235;23;20387;-73
2023/10/15 08:31:25;;;;;;;8.70;1.65;;;20.40;66.90;;;;;;6210454;23;20043;-74
2023/10/15 08:33:52;;;;;;;5.60;1.60;;;20.50;67.30;;;;;;6210117;23;19997;-74
2023/10/15 08:36:21;;;;;;;6.88;1.30;;;20.40;67.70;;;;;;6210818;23;20015;-73
2023/10/15 08:38:49;;;;;;;8.13;1.80;;;20.40;68.20;;;;;;6209352;23;20020;-73
2023/10/15 08:41:17;;;;;;;6.55;1.80;;;20.30;68.80;;;;;;6209883;23;20005;-74
2023/10/15 08:43:46;;;;;;;5.30;1.50;;;20.30;68.80;;;;;;6159493;23;20035;-73
2023/10/15 08:46:13;;;;;;;8.10;1.77;;;20.30;68.00;;;;;;6160466;23;20091;-73
2023/10/15 08:48:41;;;;;;;4.38;1.23;;;20.40;68.20;;;;;;6183570;23;20439;-74
2023/10/15 08:51:09;;;;;;;6.70;1.90;;;20.30;68.60;;;;;;6210766;23;20012;-74
2023/10/15 08:53:36;;;;;;;7.68;1.83;;;20.30;68.40;;;;;;6209783;23;20007;-74
2023/10/15 08:56:03;;;;;;;8.80;1.63;;;20.30;68.70;;;;;;6134103;23;20017;-76
2023/10/15 08:58:30;;;;;;;8.00;1.60;;;20.30;68.70;;;;;;6209968;23;20005;-76
2023/10/15 09:01:00;;;;;;;4.32;1.40;;;20.30;68.50;;;;;;6157489;23;20080;-76
2023/10/15 09:03:27;;;;;;;6.05;1.35;;;20.20;68.40;;;;;;6159901;23;20063;-77
2023/10/15 09:05:57;;;;;;;3.00;1.27;;;20.20;68.80;;;;;;6184181;23;19997;-76
2023/10/15 09:08:24;;;;;;;5.13;1.55;;;20.20;68.80;;;;;;6184078;23;20005;-75
2023/10/15 09:10:52;;;;;;;4.30;1.58;;;20.20;68.80;;;;;;6183470;23;20271;-75
2023/10/15 09:13:21;;;;;;;4.18;1.30;;;20.20;68.90;;;;;;6184611;23;20009;-76
2023/10/15 09:15:52;;;;;;;3.50;1.30;;;20.10;69.30;;;;;;6211377;23;20080;-74
2023/10/15 09:18:18;;;;;;;;;;;20.10;69.80;;;;;;6182733;23;20000;-73
2023/10/15 09:20:50;;;;;;;3.10;1.33;;;20.10;69.90;;;;;;6210320;23;19904;-73
2023/10/15 09:23:21;;;;;;;4.80;1.40;;;20.10;70.50;;;;;;6136067;23;20011;-72
2023/10/15 09:25:53;;;;;;;4.72;1.40;;;20.10;70.80;;;;;;6210928;23;20040;-73
2023/10/15 09:28:21;;;;;;;6.82;2.20;;;20.10;71.30;;;;;;6160237;23;20074;-74
2023/10/15 09:30:48;;;;;;;3.88;1.30;;;20.10;71.40;;;;;;6158879;23;20458;-73
2023/10/15 09:33:17;;;;;;;4.47;1.38;;;20.00;71.60;;;;;;6158396;23;20380;-73
2023/10/15 09:35:45;;;;;;;4.47;1.50;;;20.00;71.90;;;;;;6159724;23;20008;-75
2023/10/15 09:38:15;;;;;;;3.38;1.40;;;20.00;72.10;;;;;;6210337;23;20011;-72
2023/10/15 09:40:45;;;;;;;2.80;1.08;;;20.00;71.40;;;;;;6184613;23;20017;-73
2023/10/15 09:43:13;;;;;;;;;;;20.00;71.50;;;;;;6183231;23;20004;-75
2023/10/15 09:45:42;;;;;;;;;;;20.00;71.10;;;;;;6184129;23;19923;-75
2023/10/15 09:48:09;;;;;;;6.95;1.50;;;20.00;70.50;;;;;;6209951;23;19907;-75
2023/10/15 09:50:41;;;;;;;5.43;1.40;;;19.90;70.30;;;;;;6210151;23;20012;-75
2023/10/15 09:53:12;;;;;;;4.95;1.40;;;19.90;70.40;;;;;;6182542;23;20080;-74
2023/10/15 09:55:43;;;;;;;3.78;1.13;;;19.90;70.40;;;;;;6209830;23;20031;-74
2023/10/15 09:58:11;;;;;;;6.47;1.27;;;19.90;70.50;;;;;;6210438;23;20411;-74
2023/10/15 10:00:59;;;;;;;5.63;1.40;;;19.80;70.40;;;;;;6183908;23;20067;-74
2023/10/15 10:03:47;;;;;;;2.75;1.20;;;19.80;70.30;;;;;;6210291;23;20440;-74
2023/10/15 10:06:32;;;;;;;4.72;1.40;;;19.80;70.50;;;;;;6210253;23;20071;-74
2023/10/15 10:09:22;;;;;;;4.80;2.08;;;19.80;70.50;;;;;;6184044;23;20009;-74
2023/10/15 10:12:19;;;;;;;6.72;1.88;;;19.80;70.30;;;;;;6210656;23;20012;-74
2023/10/15 10:15:15;;;;;;;3.70;1.48;;;19.80;70.40;;;;;;6141624;23;20079;-74
2023/10/15 10:17:42;;;;;;;5.40;1.50;;;19.80;70.60;;;;;;6207974;23;20080;-74
2023/10/15 10:47:23;;;;;;;4.05;1.30;;;19.60;70.40;;;;;;6207562;23;20060;-74
2023/10/15 10:50:03;;;;;;;4.45;1.00;;;19.50;70.00;;;;;;6155566;23;20041;-74
2023/10/15 10:52:37;;;;;;;5.78;1.17;;;19.60;69.80;;;;;;6156337;23;20436;-73
2023/10/15 10:55:33;;;;;;;6.53;1.45;;;19.50;69.70;;;;;;6156432;23;20001;-74
2023/10/15 10:58:04;;;;;;;4.25;1.23;;;19.50;69.40;;;;;;6180848;23;20005;-74
2023/10/15 11:00:31;;;;;;;5.95;1.15;;;19.50;69.10;;;;;;6181692;23;20023;-73
2023/10/15 11:03:06;;;;;;;3.83;1.30;;;19.50;68.10;;;;;;6184397;23;20084;-76
2023/10/15 11:05:34;;;;;;;3.75;1.70;;;19.50;67.90;;;;;;6183603;23;20440;-76
2023/10/15 11:08:03;;;;;;;3.00;1.10;;;19.50;67.90;;;;;;6159386;23;20008;-75
2023/10/15 11:10:32;;;;;;;4.97;1.35;;;19.40;67.10;;;;;;6185170;23;20313;-75
2023/10/15 11:12:59;;;;;;;3.90;1.33;;;19.50;67.00;;;;;;6184909;23;20005;-75
2023/10/15 11:15:26;;;;;;;3.80;1.20;;;19.40;66.80;;;;;;6159153;23;20011;-75
2023/10/15 11:17:57;;;;;;;6.05;1.60;;;19.50;66.00;;;;;;6183264;23;20001;-75
2023/10/15 11:20:30;;;;;;;3.28;1.10;;;19.50;65.60;;;;;;6159099;23;20038;-75
2023/10/15 11:23:01;;;;;;;1.80;1.05;;;19.40;65.60;;;;;;6185123;23;19997;-75
2023/10/15 11:25:28;;;;;;;3.40;1.10;;;19.40;65.80;;;;;;6183321;23;20005;-75
2023/10/15 11:27:55;;;;;;;4.22;1.15;;;19.40;65.00;;;;;;6159043;23;20005;-75
2023/10/15 11:30:22;;;;;;;6.55;1.40;;;19.40;65.10;;;;;;6158678;23;20017;-75
2023/10/15 11:32:51;;;;;;;2.28;1.10;;;19.40;65.30;;;;;;6159398;23;20008;-75
2023/10/15 11:35:19;;;;;;;3.33;1.17;;;19.40;65.20;;;;;;6159364;23;20348;-75
2023/10/15 11:37:50;;;;;;;3.30;0.85;;;19.40;65.50;;;;;;6183022;23;20080;-75
2023/10/15 11:40:20;;;;;;;2.95;1.10;;;19.40;65.30;;;;;;6158896;23;20005;-75
2023/10/15 11:42:54;;;;;;;3.55;1.20;;;19.40;65.30;;;;;;6158853;23;20008;-75
2023/10/15 11:45:30;;;;;;;3.53;0.90;;;19.40;65.30;;;;;;6159674;23;20309;-75
2023/10/15 11:47:58;;;;;;;2.65;1.35;;;19.40;65.40;;;;;;6181803;23;20386;-75
2023/10/15 11:50:25;;;;;;;2.75;1.02;;;19.40;65.30;;;;;;6158031;23;20095;-75
2023/10/15 11:52:55;;;;;;;1.92;1.15;;;19.40;65.20;;;;;;6158509;23;20001;-74
2023/10/15 11:55:22;;;;;;;;;;;19.40;65.30;;;;;;6159668;23;20001;-75
2023/10/15 11:57:50;;;;;;;2.92;1.13;;;19.40;65.50;;;;;;6159131;23;20343;-74
2023/10/15 12:00:31;;;;;;;3.10;1.10;;;19.50;65.60;;;;;;6184245;23;20001;-74
2023/10/15 12:03:05;;;;;;;3.95;1.00;;;19.40;65.70;;;;;;6184712;23;20004;-74
2023/10/15 12:05:33;;;;;;;6.22;1.13;;;19.40;65.70;;;;;;6159681;23;20032;-75
2023/10/15 12:08:01;;;;;;;2.25;0.90;;;19.40;65.80;;;;;;6184014;23;20332;-75
2023/10/15 12:10:28;;;;;;;4.03;1.00;;;19.40;66.00;;;;;;6184894;23;20491;-75
2023/10/15 12:12:56;;;;;;;3.15;1.08;;;19.40;66.00;;;;;;6158800;23;20104;-75
2023/10/15 12:15:23;;;;;;;2.70;1.33;;;19.40;66.30;;;;;;6185077;23;20016;-74
2023/10/15 12:17:50;;;;;;;5.75;1.10;;;19.30;66.40;;;;;;6184969;23;20048;-75
2023/10/15 12:20:17;;;;;;;3.22;1.30;;;19.30;66.60;;;;;;6184264;23;20001;-75
2023/10/15 12:22:45;;;;;;;4.75;1.27;;;19.30;66.70;;;;;;6157893;23;20001;-75
2023/10/15 12:25:12;;;;;;;4.05;1.20;;;19.30;66.90;;;;;;6184906;23;20059;-75
2023/10/15 12:27:39;;;;;;;2.47;1.08;;;19.30;67.10;;;;;;6184379;23;20004;-74
2023/10/15 12:30:13;;;;;;;3.83;1.10;;;19.30;66.90;;;;;;6183407;23;20471;-74
2023/10/15 12:32:40;;;;;;;3.97;1.33;;;19.30;67.20;;;;;;6183800;23;20468;-74
2023/10/15 12:35:11;;;;;;;3.35;1.10;;;19.30;67.50;;;;;;6184114;23;20425;-75
2023/10/15 12:37:39;;;;;;;2.17;1.27;;;19.30;67.70;;;;;;6183347;23;20428;-75
2023/10/15 12:40:12;;;;;;;5.28;1.33;;;19.30;67.60;;;;;;6184553;23;20393;-75
2023/10/15 12:42:42;;;;;;;5.18;1.60;;;19.20;67.60;;;;;;6183912;23;20056;-75
2023/10/15 12:45:13;;;;;;;3.65;1.17;;;19.20;68.00;;;;;;6158055;23;20028;-75
2023/10/15 12:47:40;;;;;;;;;;;19.20;68.00;;;;;;6189934;23;20078;-75
2023/10/15 12:50:17;;;;;;;4.82;1.23;;;19.20;68.20;;;;;;6213399;23;19908;-75
2023/10/15 12:52:45;;;;;;;3.50;1.40;;;19.20;68.30;;;;;;6214210;23;20001;-75
2023/10/15 12:55:15;;;;;;;3.65;1.23;;;19.10;68.30;;;;;;6163721;23;20428;-74
2023/10/15 12:57:42;;;;;;;3.47;1.40;;;19.10;68.60;;;;;;6188075;23;20371;-74
2023/10/15 13:00:19;;;;;;;4.75;1.20;;;18.90;68.80;;;;;;6187961;23;20397;-74
2023/10/15 13:02:51;;;;;;;4.13;1.38;;;18.80;69.20;;;;;;6213836;23;20380;-74
2023/10/15 13:05:23;;;;;;;3.35;1.20;;;18.80;69.60;;;;;;6139229;23;20087;-74
2023/10/15 13:07:51;;;;;;;2.75;1.13;;;18.70;70.20;;;;;;6214914;23;20004;-74
2023/10/15 13:10:20;;;;;;;6.07;1.40;;;18.80;70.70;;;;;;6187375;23;20340;-74
2023/10/15 13:12:48;;;;;;;1.88;1.17;;;18.70;70.70;;;;;;6187671;23;20124;-74
2023/10/15 13:15:18;;;;;;;2.90;1.13;;;18.70;71.10;;;;;;6187986;23;20011;-74
2023/10/15 13:17:54;;;;;;;5.77;1.17;;;18.70;71.30;;;;;;6188516;23;20007;-74
2023/10/15 13:20:23;;;;;;;4.57;1.35;;;18.70;71.20;;;;;;6163886;23;20234;-74
2023/10/15 13:22:50;;;;;;;4.07;1.20;;;18.70;71.30;;;;;;6160187;23;20080;-75
2023/10/15 13:25:18;;;;;;;4.18;1.45;;;18.70;71.10;;;;;;6185485;23;20004;-75
2023/10/15 13:27:45;;;;;;;6.82;1.17;;;18.60;71.00;;;;;;6160919;23;20004;-74
2023/10/15 13:30:15;;;;;;;4.55;1.20;;;18.60;71.20;;;;;;6160132;23;20530;-74
2023/10/15 13:32:43;;;;;;;4.85;1.15;;;18.50;71.30;;;;;;6185680;23;20427;-74
2023/10/15 13:35:11;;;;;;;3.70;1.13;;;18.50;71.30;;;;;;6161015;23;20004;-74
2023/10/15 13:37:42;;;;;;;7.25;1.20;;;18.40;71.70;;;;;;6215344;23;20008;-74
2023/10/15 13:40:11;;;;;;;2.65;1.30;;;18.40;71.80;;;;;;6139229;23;20031;-74
2023/10/15 13:42:38;;;;;;;4.25;1.05;;;18.30;72.00;;;;;;6163144;23;20423;-74
2023/10/15 13:45:06;;;;;;;2.08;1.05;;;18.30;72.10;;;;;;6161246;23;20431;-74
2023/10/15 13:47:36;;;;;;;2.35;1.08;;;18.30;72.10;;;;;;6210912;23;19997;-75
2023/10/15 13:50:09;;;;;;;2.85;1.20;;;18.20;72.20;;;;;;6162228;23;20009;-74
2023/10/15 13:52:42;;;;;;;2.67;1.30;;;18.30;72.10;;;;;;6160850;23;20001;-74
2023/10/15 13:55:11;;;;;;;2.08;1.10;;;18.30;72.10;;;;;;6162374;23;20056;-75
2023/10/15 13:57:38;;;;;;;3.78;1.02;;;18.20;71.90;;;;;;6185364;23;20001;-74
2023/10/15 14:00:15;;;;;;;4.68;1.45;;;18.30;71.60;;;;;;6212593;23;20059;-74
2023/10/15 14:02:43;;;;;;;3.78;1.15;;;18.20;71.20;;;;;;6190072;23;20001;-74
2023/10/15 14:05:20;;;;;;;3.38;1.30;;;18.30;70.70;;;;;;6189941;23;20008;-74
2023/10/15 14:07:49;;;;;;;3.00;1.23;;;18.30;69.90;;;;;;6216023;23;20027;-74
2023/10/15 14:10:17;;;;;;;3.25;1.27;;;18.30;69.40;;;;;;6189916;23;20100;-75
2023/10/15 14:12:44;;;;;;;4.18;1.52;;;18.30;69.20;;;;;;6214726;23;20005;-75
2023/10/15 14:15:16;;;;;;;3.13;1.42;;;18.30;69.20;;;;;;6216546;23;20004;-74
2023/10/15 14:17:45;;;;;;;3.78;1.27;;;18.30;69.00;;;;;;6190816;23;20000;-75
2023/10/15 14:20:16;;;;;;;2.35;1.35;;;18.30;69.00;;;;;;6216035;23;20001;-75
2023/10/15 14:22:46;;;;;;;4.20;1.30;;;18.20;69.00;;;;;;6214604;23;20004;-75
2023/10/15 14:25:14;;;;;;;4.72;1.35;;;18.30;69.20;;;;;;6215565;23;20008;-75
2023/10/15 14:27:41;;;;;;;3.00;1.30;;;18.30;69.10;;;;;;6216504;23;20079;-74
2023/10/15 14:30:10;;;;;;;5.38;1.30;;;18.20;69.10;;;;;;6216583;23;20044;-74
2023/10/15 14:32:37;;;;;;;6.85;1.95;;;18.30;69.30;;;;;;6164565;23;20005;-74
2023/10/15 14:35:09;;;;;;;4.03;1.40;;;18.20;69.40;;;;;;6189833;23;20012;-74
2023/10/15 14:37:38;;;;;;;4.65;2.30;;;18.10;69.50;;;;;;6189548;23;20008;-74
2023/10/15 14:40:07;;;;;;;4.13;2.05;;;18.00;69.70;;;;;;6189693;23;20001;-74
2023/10/15 14:42:37;;;;;;;6.18;1.95;;;18.00;70.00;;;;;;6164586;23;20435;-74
2023/10/15 14:45:06;;;;;;;4.70;1.70;;;18.00;70.00;;;;;;6189873;23;20009;-74
2023/10/15 14:47:33;;;;;;;4.10;1.80;;;17.90;70.20;;;;;;6188819;23;20000;-75
2023/10/15 14:50:02;;;;;;;4.70;1.85;;;17.80;70.40;;;;;;6189052;23;20020;-74
2023/10/15 14:52:30;;;;;;;4.43;1.60;;;17.80;70.60;;;;;;6164919;23;20001;-74
2023/10/15 14:54:57;;;;;;;6.25;1.88;;;17.80;70.80;;;;;;6164232;23;20008;-74
2023/10/15 14:57:25;;;;;;;4.18;1.60;;;17.80;70.60;;;;;;6189395;23;20004;-74
2023/10/15 14:59:52;;;;;;;2.60;1.48;;;17.80;70.80;;;;;;6164957;23;20005;-75
2023/10/15 15:02:19;;;;;;;6.70;1.98;;;17.80;71.10;;;;;;6164056;23;20012;-74
2023/10/15 15:04:47;;;;;;;5.55;1.60;;;17.80;71.40;;;;;;6214874;23;20004;-75
2023/10/15 15:07:15;;;;;;;5.20;1.60;;;17.80;71.60;;;;;;6215757;23;20032;-74
2023/10/15 15:09:42;;;;;;;4.18;1.60;;;17.80;71.70;;;;;;6189133;23;20016;-74
2023/10/15 15:12:10;;;;;;;5.90;1.73;;;17.70;72.00;;;;;;6188901;23;20404;-74
2023/10/15 15:14:37;;;;;;;4.25;1.55;;;17.70;71.90;;;;;;6215435;23;20001;-74
2023/10/15 15:17:05;;;;;;;5.80;1.60;;;17.70;72.00;;;;;;6215498;23;20012;-74
2023/10/15 15:19:32;;;;;;;4.47;1.75;;;17.70;72.20;;;;;;6188808;23;20013;-74
2023/10/15 15:21:59;;;;;;;5.57;1.90;;;17.70;72.10;;;;;;6214500;23;20028;-75
2023/10/15 15:24:29;;;;;;;8.52;1.80;;;17.70;72.40;;;;;;6188484;23;20025;-74
2023/10/15 15:26:56;;;;;;;4.22;1.48;;;17.60;72.70;;;;;;6215139;23;20463;-74
2023/10/15 15:29:24;;;;;;;6.10;2.03;;;17.60;73.00;;;;;;6215741;23;20012;-74
2023/10/15 15:31:51;;;;;;;5.15;1.83;;;17.50;73.10;;;;;;6187974;23;20005;-75
2023/10/15 15:34:18;;;;;;;4.75;1.75;;;17.50;73.40;;;;;;6215259;23;20250;-76
2023/10/15 15:36:46;;;;;;;5.40;1.70;;;17.60;73.60;;;;;;6215715;23;20000;-75
2023/10/15 15:39:14;;;;;;;5.15;1.85;;;17.50;73.60;;;;;;6215552;23;20451;-75
2023/10/15 15:41:41;;;;;;;4.05;1.58;;;17.50;74.00;;;;;;6188453;23;20012;-75
2023/10/15 15:44:08;;;;;;;3.70;1.98;;;17.50;74.10;;;;;;6215053;23;20012;-75
2023/10/15 15:46:37;;;;;;;4.43;1.70;;;17.50;74.50;;;;;;6215095;23;20440;-75
2023/10/15 15:49:06;;;;;;;7.85;1.83;;;17.50;74.90;;;;;;6188491;23;20048;-75
2023/10/15 15:51:35;;;;;;;5.75;1.80;;;17.40;75.40;;;;;;6187994;23;20009;-75
2023/10/15 15:54:04;;;;;;;5.57;1.88;;;17.40;75.30;;;;;;6214919;23;20055;-75
2023/10/15 15:56:37;;;;;;;6.22;1.95;;;17.30;75.90;;;;;;6164180;23;20005;-76
2023/10/15 15:59:03;;;;;;;;;;;17.30;76.10;;;;;;6189393;23;20005;-75
2023/10/15 16:01:30;;;;;;;7.32;2.03;;;17.30;76.30;;;;;;6187783;23;19907;-75
2023/10/15 16:04:00;;;;;;;6.97;2.13;;;17.40;76.60;;;;;;6214773;23;20004;-76
2023/10/15 16:06:28;;;;;;;6.25;2.22;;;17.30;77.10;;;;;;6189196;23;20324;-75
2023/10/15 16:08:55;;;;;;;6.55;2.17;;;17.30;77.20;;;;;;6189082;23;20373;-75
2023/10/15 16:11:22;;;;;;;4.75;2.05;;;17.30;77.40;;;;;;6188139;23;20079;-76
2023/10/15 16:13:52;;;;;;;7.03;2.17;;;17.30;77.20;;;;;;6215116;23;20007;-76
2023/10/15 16:16:19;;;;;;;5.30;1.83;;;17.30;77.40;;;;;;6189666;23;20008;-75
2023/10/15 16:18:47;;;;;;;7.43;2.38;;;17.30;77.60;;;;;;6214638;23;20095;-76
2023/10/15 16:21:15;;;;;;;8.43;2.20;;;17.30;78.00;;;;;;6188520;23;20008;-76
2023/10/15 16:23:42;;;;;;;5.63;2.47;;;17.40;78.20;;;;;;6187878;23;19996;-75
2023/10/15 16:26:10;;;;;;;12.88;2.95;;;17.40;78.50;;;;;;6188004;23;20004;-75
2023/10/15 16:28:37;;;;;;;10.10;2.83;;;17.30;78.50;;;;;;6214806;23;20000;-75
2023/10/15 16:31:05;;;;;;;8.73;2.50;;;17.20;79.00;;;;;;6188016;23;20017;-75
2023/10/15 16:33:32;;;;;;;6.22;2.25;;;17.20;79.10;;;;;;6188144;23;20047;-75
2023/10/15 16:35:59;;;;;;;6.30;2.20;;;17.20;79.10;;;;;;6214537;23;20004;-76
2023/10/15 16:38:27;;;;;;;4.72;2.30;;;17.20;79.10;;;;;;6163920;23;20032;-75
2023/10/15 16:40:55;;;;;;;9.52;2.95;;;17.20;79.20;;;;;;6214329;23;20336;-76
2023/10/15 16:43:22;;;;;;;8.05;2.33;;;17.20;79.00;;;;;;6214444;23;20004;-75
2023/10/15 16:45:53;;;;;;;5.20;2.20;;;17.20;79.00;;;;;;6188447;23;20092;-75
2023/10/15 16:48:24;;;;;;;5.28;2.20;;;17.10;79.00;;;;;;6214509;23;20040;-75
2023/10/15 16:50:51;;;;;;;11.93;2.65;;;17.10;78.80;;;;;;6188463;23;20071;-75
2023/10/15 16:53:18;;;;;;;11.38;2.67;;;17.10;78.80;;;;;;6213916;23;20482;-76
2023/10/15 16:55:46;;;;;;;7.10;2.30;;;17.10;78.80;;;;;;6188578;23;20001;-76
2023/10/15 16:58:13;;;;;;;4.65;2.20;;;17.10;78.70;;;;;;6163893;23;20075;-75
2023/10/15 17:00:40;;;;;;;6.18;2.10;;;17.00;78.70;;;;;;6188106;23;20009;-75
2023/10/15 17:03:07;;;;;;;6.20;2.05;;;17.10;78.80;;;;;;6213590;23;20052;-75
2023/10/15 17:05:35;;;;;;;6.82;2.40;;;17.00;78.50;;;;;;6214233;23;20072;-76
2023/10/15 17:08:02;;;;;;;6.38;2.22;;;17.00;78.70;;;;;;6214002;23;20390;-76
2023/10/15 17:10:30;;;;;;;7.25;2.10;;;17.00;78.60;;;;;;6214366;23;20008;-76
2023/10/15 17:12:57;;;;;;;6.07;1.85;;;17.00;78.60;;;;;;6214336;23;20047;-76
2023/10/15 17:15:25;;;;;;;6.68;2.00;;;17.00;78.50;;;;;;6188411;23;20035;-76
2023/10/15 17:17:52;;;;;;;8.50;1.90;;;16.90;78.80;;;;;;6214573;23;20084;-75
2023/10/15 17:20:22;;;;;;;7.70;2.08;;;16.90;79.00;;;;;;6187968;23;20978;-75
2023/10/15 17:22:50;;;;;;;5.35;2.00;;;16.90;79.00;;;;;;6188611;23;20008;-75
2023/10/15 17:25:17;;;;;;;6.32;2.20;;;16.90;78.60;;;;;;6164083;23;20011;-75
2023/10/15 17:27:44;;;;;;;7.60;2.30;;;16.80;78.50;;;;;;6214734;23;20011;-78
2023/10/15 17:30:16;;;;;;;7.10;2.08;;;16.80;78.80;;;;;;6214174;23;20012;-75
2023/10/15 17:32:43;;;;;;;5.93;2.17;;;16.80;78.80;;;;;;6213460;23;20077;-76
2023/10/15 17:35:11;;;;;;;4.93;2.30;;;16.80;78.70;;;;;;6188428;23;20348;-75
2023/10/15 17:37:38;;;;;;;6.38;2.20;;;16.80;78.70;;;;;;6213951;23;20454;-76
2023/10/15 17:40:06;;;;;;;9.10;2.10;;;16.80;78.50;;;;;;6187668;23;20435;-76
2023/10/15 17:42:35;;;;;;;8.27;2.30;;;16.70;78.80;;;;;;6214181;23;20000;-75
2023/10/15 17:45:03;;;;;;;6.65;1.90;;;16.70;78.70;;;;;;6213810;23;20036;-74
2023/10/15 17:47:30;;;;;;;5.43;2.03;;;16.70;78.60;;;;;;6184557;23;20001;-75
2023/10/15 17:49:58;;;;;;;6.32;2.25;;;16.60;78.70;;;;;;6161275;23;20012;-75
2023/10/15 17:52:25;;;;;;;5.93;2.17;;;16.60;78.80;;;;;;6214689;23;20095;-75
2023/10/15 17:54:53;;;;;;;6.07;2.20;;;16.50;79.00;;;;;;6188106;23;20000;-75
